Terminal Aerodrome Forecast
Issued by NWS Caribou, ME

Home | Current Version | Previous Version | Text Only | Print | Product List | Glossary On
Versions: 1 2 3 4 5 6 7 8 9 10 11 12 13 14
000
FTUS41 KCAR 231100 AAA
TAFCAR
TAF AMD
KCAR 231158Z 2312/2412 14006KT 2SM -SHRA BR OVC004
     FM231600 36006KT P6SM SCT008 OVC015
     FM232300 34010KT 5SM -RA OVC008=

USA.gov is the U.S. government's official web portal to all federal, state and local government web resources and services.